createdAt,value
2019-05-05T00:01:26.564Z,22.27
2019-05-05T00:03:44.891Z,22.26
2019-05-05T00:05:46.476Z,22.24
2019-05-05T00:07:48.072Z,22.23
2019-05-05T00:09:49.658Z,22.24
2019-05-05T00:11:51.299Z,22.22
2019-05-05T00:14:08.729Z,22.22
2019-05-05T00:16:16.176Z,22.20
2019-05-05T00:18:17.765Z,22.21
2019-05-05T00:20:19.372Z,22.20
2019-05-05T00:22:21.016Z,22.05
2019-05-05T00:24:24.427Z,22.20
2019-05-05T00:26:24.457Z,22.22
2019-05-05T00:28:25.997Z,22.23
2019-05-05T00:30:27.591Z,22.23
2019-05-05T00:32:29.218Z,22.23
2019-05-05T00:34:30.811Z,22.23
2019-05-05T00:36:32.400Z,22.22
2019-05-05T00:38:35.192Z,22.29
2019-05-05T00:40:35.647Z,22.40
2019-05-05T00:42:37.291Z,22.40
2019-05-05T00:44:38.880Z,22.43
2019-05-05T00:46:55.352Z,22.43
2019-05-05T00:48:56.926Z,22.44
2019-05-05T00:50:58.511Z,22.45
2019-05-05T00:53:00.132Z,22.43
2019-05-05T00:55:01.735Z,22.44
2019-05-05T00:57:04.455Z,22.43
2019-05-05T00:59:05.007Z,22.45
2019-05-05T01:01:10.496Z,22.43
2019-05-05T01:03:12.112Z,22.42
2019-05-05T01:05:16.564Z,22.43
2019-05-05T01:07:18.148Z,22.43
2019-05-05T01:09:19.732Z,22.38
2019-05-05T01:11:21.340Z,22.30
2019-05-05T01:13:24.570Z,22.26
2019-05-05T01:15:25.447Z,22.20
2019-05-05T01:17:26.336Z,22.17
2019-05-05T01:19:27.920Z,22.16
2019-05-05T01:21:29.505Z,22.14
2019-05-05T01:23:31.079Z,22.12
2019-05-05T01:25:34.595Z,22.16
2019-05-05T01:27:34.797Z,22.19
2019-05-05T01:29:36.104Z,22.18
2019-05-05T01:31:37.692Z,22.22
2019-05-05T01:33:45.117Z,22.10
2019-05-05T01:35:46.718Z,21.79
2019-05-05T01:37:58.220Z,21.85
2019-05-05T01:40:00.692Z,21.93
2019-05-05T01:42:05.008Z,21.99
2019-05-05T01:44:06.533Z,22.03
2019-05-05T01:46:08.121Z,22.07
2019-05-05T01:48:09.750Z,22.07
2019-05-05T01:50:18.228Z,22.10
2019-05-05T01:52:14.888Z,22.12
2019-05-05T01:54:14.644Z,22.17
2019-05-05T01:56:16.218Z,22.23
2019-05-05T01:58:17.815Z,22.25
2019-05-05T02:00:19.409Z,22.33
2019-05-05T02:02:20.992Z,22.34
2019-05-05T02:04:24.438Z,22.38
2019-05-05T02:06:24.832Z,22.40
2019-05-05T02:08:25.843Z,22.42
2019-05-05T02:10:27.438Z,22.45
2019-05-05T02:12:29.024Z,22.47
2019-05-05T02:14:30.608Z,22.45
2019-05-05T02:16:32.192Z,22.47
2019-05-05T02:18:34.533Z,22.47
2019-05-05T02:20:35.490Z,22.48
2019-05-05T02:22:37.136Z,22.46
2019-05-05T02:24:38.723Z,22.45
2019-05-05T02:26:40.308Z,22.42
2019-05-05T02:28:41.950Z,22.38
2019-05-05T02:30:46.469Z,22.39
2019-05-05T02:32:47.400Z,22.35
2019-05-05T02:34:49.500Z,22.32
2019-05-05T02:36:51.093Z,22.29
2019-05-05T02:38:52.700Z,22.29
2019-05-05T02:40:54.975Z,22.24
2019-05-05T02:42:55.969Z,22.18
2019-05-05T02:44:57.580Z,22.15
2019-05-05T02:46:59.663Z,22.17
2019-05-05T02:49:01.262Z,22.18
2019-05-05T02:51:06.070Z,22.19
2019-05-05T02:53:04.508Z,22.22
2019-05-05T02:55:06.129Z,22.21
2019-05-05T02:57:07.717Z,22.20
2019-05-05T02:59:09.354Z,22.14
2019-05-05T03:01:13.872Z,22.09
2019-05-05T03:03:13.551Z,22.06
2019-05-05T03:05:15.174Z,22.03
2019-05-05T03:07:16.760Z,22.02
2019-05-05T03:09:18.380Z,22.03
2019-05-05T03:11:19.969Z,22.03
2019-05-05T03:13:21.557Z,22.06
2019-05-05T03:15:24.371Z,22.06
2019-05-05T03:17:24.827Z,22.20
2019-05-05T03:19:26.399Z,22.27
2019-05-05T03:21:27.984Z,22.32
2019-05-05T03:23:29.572Z,22.37
2019-05-05T03:25:32.972Z,22.39
2019-05-05T03:27:34.110Z,22.18
2019-05-05T03:29:34.520Z,22.47
2019-05-05T03:31:36.105Z,22.54
2019-05-05T03:33:37.712Z,22.57
2019-05-05T03:35:39.302Z,22.57
2019-05-05T03:37:40.892Z,22.57
2019-05-05T03:39:44.395Z,22.58
2019-05-05T03:41:49.886Z,22.56
2019-05-05T03:43:57.079Z,22.54
2019-05-05T03:45:58.687Z,22.62
2019-05-05T03:48:00.282Z,22.59
2019-05-05T03:50:04.196Z,22.58
2019-05-05T03:52:04.818Z,22.55
2019-05-05T03:54:05.139Z,22.47
2019-05-05T03:56:06.724Z,22.40
2019-05-05T03:58:08.308Z,22.38
2019-05-05T04:00:09.896Z,22.36
2019-05-05T04:02:11.486Z,21.69
2019-05-05T04:04:18.824Z,22.20
2019-05-05T04:06:20.408Z,22.21
2019-05-05T04:08:23.494Z,22.18
2019-05-05T04:10:24.484Z,22.18
2019-05-05T04:12:25.316Z,22.16
2019-05-05T04:14:26.957Z,22.14
2019-05-05T04:16:28.547Z,22.11
2019-05-05T04:18:30.192Z,22.05
2019-05-05T04:20:33.774Z,22.03
2019-05-05T04:22:34.332Z,22.04
2019-05-05T04:24:35.175Z,22.05
2019-05-05T04:26:36.776Z,22.04
2019-05-05T04:28:38.406Z,22.09
2019-05-05T04:30:40.016Z,22.11
2019-05-05T04:32:43.770Z,22.10
2019-05-05T04:34:44.035Z,22.21
2019-05-05T04:36:44.918Z,22.28
2019-05-05T04:38:46.528Z,22.30
2019-05-05T04:40:48.131Z,22.33
2019-05-05T04:42:49.721Z,22.33
2019-05-05T04:44:53.637Z,22.37
2019-05-05T04:46:54.611Z,22.40
2019-05-05T04:48:58.675Z,22.46
2019-05-05T04:51:01.116Z,22.52
2019-05-05T04:53:04.446Z,22.56
2019-05-05T04:55:04.388Z,22.58
2019-05-05T04:57:05.976Z,22.63
2019-05-05T04:59:07.572Z,22.68
2019-05-05T05:01:09.159Z,22.71
2019-05-05T05:03:16.476Z,22.70
2019-05-05T05:05:21.576Z,22.76
2019-05-05T05:07:24.182Z,22.74
2019-05-05T05:09:24.831Z,22.77
2019-05-05T05:11:26.420Z,22.78
2019-05-05T05:13:28.004Z,22.77
2019-05-05T05:15:29.639Z,22.80
2019-05-05T05:17:31.243Z,22.78
2019-05-05T05:19:33.499Z,22.79
2019-05-05T05:21:34.491Z,22.80
2019-05-05T05:23:36.086Z,22.79
2019-05-05T05:25:37.718Z,22.79
2019-05-05T05:27:39.314Z,22.83
2019-05-05T05:29:40.918Z,22.82
2019-05-05T05:31:44.283Z,22.77
2019-05-05T05:33:44.195Z,22.74
2019-05-05T05:35:45.836Z,22.77
2019-05-05T05:37:47.434Z,22.65
2019-05-05T05:40:04.667Z,22.55
2019-05-05T05:42:06.268Z,22.44
2019-05-05T05:44:08.341Z,22.34
2019-05-05T05:46:15.807Z,22.28
2019-05-05T05:48:20.085Z,22.25
2019-05-05T05:50:21.673Z,22.22
2019-05-05T05:52:24.256Z,22.16
2019-05-05T05:54:24.968Z,22.12
2019-05-05T05:56:26.579Z,22.10
2019-05-05T05:58:28.181Z,22.11
2019-05-05T06:00:29.770Z,22.04
2019-05-05T06:02:33.381Z,21.99
2019-05-05T06:04:34.031Z,21.98
2019-05-05T06:06:34.802Z,22.11
2019-05-05T06:08:36.380Z,22.11
2019-05-05T06:10:37.968Z,22.09
2019-05-05T06:12:39.561Z,22.26
2019-05-05T06:14:41.152Z,22.22
2019-05-05T06:16:44.497Z,22.31
2019-05-05T06:18:44.458Z,22.32
2019-05-05T06:20:46.046Z,22.24
2019-05-05T06:22:47.680Z,22.18
2019-05-05T06:24:49.288Z,22.21
2019-05-05T06:26:50.882Z,22.24
2019-05-05T06:28:54.064Z,22.31
2019-05-05T06:30:54.713Z,22.46
2019-05-05T06:32:55.948Z,22.59
2019-05-05T06:34:57.560Z,22.77
2019-05-05T06:36:59.176Z,22.93
2019-05-05T06:39:00.782Z,23.02
2019-05-05T06:41:14.642Z,23.12
2019-05-05T06:43:18.526Z,23.24
2019-05-05T06:45:30.017Z,23.31
2019-05-05T06:47:31.619Z,23.31
2019-05-05T06:49:34.541Z,23.27
2019-05-05T06:51:34.935Z,23.28
2019-05-05T06:53:36.531Z,23.27
2019-05-05T06:55:38.136Z,23.22
2019-05-05T06:57:39.716Z,23.12
2019-05-05T06:59:41.327Z,22.78
2019-05-05T07:01:44.240Z,23.01
2019-05-05T07:03:44.625Z,22.98
2019-05-05T07:05:46.228Z,22.96
2019-05-05T07:07:47.832Z,22.91
2019-05-05T07:09:49.420Z,22.88
2019-05-05T07:11:51.026Z,22.83
2019-05-05T07:13:53.707Z,22.82
2019-05-05T07:15:54.383Z,22.81
2019-05-05T07:17:55.951Z,22.88
2019-05-05T07:19:57.536Z,22.96
2019-05-05T07:21:59.115Z,22.92
2019-05-05T07:24:00.756Z,22.84
2019-05-05T07:26:04.125Z,22.79
2019-05-05T07:28:04.362Z,22.76
2019-05-05T07:30:05.659Z,22.67
2019-05-05T07:32:07.259Z,22.54
2019-05-05T07:34:08.866Z,22.41
2019-05-05T07:36:29.102Z,22.35
2019-05-05T07:38:30.731Z,22.25
2019-05-05T07:40:34.493Z,22.18
2019-05-05T07:42:33.976Z,22.11
2019-05-05T07:44:35.616Z,22.07
2019-05-05T07:46:37.194Z,22.01
2019-05-05T07:48:38.791Z,21.98
2019-05-05T07:50:40.380Z,21.97
2019-05-05T07:52:43.762Z,21.92
2019-05-05T07:54:43.705Z,21.89
2019-05-05T07:56:45.255Z,21.88
2019-05-05T07:58:46.855Z,21.50
2019-05-05T08:00:48.449Z,21.89
2019-05-05T08:02:50.052Z,21.88
2019-05-05T08:04:51.640Z,21.92
2019-05-05T08:06:53.841Z,21.98
2019-05-05T08:08:54.907Z,22.06
2019-05-05T08:10:56.541Z,22.12
2019-05-05T08:12:58.126Z,22.17
2019-05-05T08:14:59.752Z,22.19
2019-05-05T08:17:04.243Z,22.28
2019-05-05T08:19:08.611Z,22.38
2019-05-05T08:21:10.200Z,22.47
2019-05-05T08:23:26.011Z,22.39
2019-05-05T08:25:37.426Z,22.56
2019-05-05T08:27:49.849Z,22.48
2019-05-05T08:29:54.281Z,22.67
2019-05-05T08:31:57.988Z,22.69
2019-05-05T08:33:59.595Z,22.72
2019-05-05T08:36:01.200Z,22.07
2019-05-05T08:38:04.575Z,22.73
2019-05-05T08:40:04.452Z,22.74
2019-05-05T08:42:06.052Z,22.71
2019-05-05T08:44:07.688Z,22.66
2019-05-05T08:46:09.278Z,22.65
2019-05-05T08:48:10.904Z,22.68
2019-05-05T08:50:13.733Z,22.57
2019-05-05T08:52:14.601Z,22.58
2019-05-05T08:54:15.854Z,22.54
2019-05-05T08:56:17.472Z,22.52
2019-05-05T08:58:19.085Z,22.48
2019-05-05T09:00:20.710Z,22.39
2019-05-05T09:02:23.934Z,22.30
2019-05-05T09:04:24.644Z,22.24
2019-05-05T09:06:25.615Z,22.19
2019-05-05T09:08:27.212Z,22.13
2019-05-05T09:10:28.800Z,22.08
2019-05-05T09:12:30.380Z,22.03
2019-05-05T09:14:31.968Z,21.98
2019-05-05T09:16:33.595Z,22.06
2019-05-05T09:18:35.192Z,21.98
2019-05-05T09:20:36.826Z,21.93
2019-05-05T09:22:38.448Z,21.91
2019-05-05T09:24:40.051Z,21.89
2019-05-05T09:26:56.665Z,21.84
2019-05-05T09:29:04.403Z,21.79
2019-05-05T09:31:05.709Z,21.78
2019-05-05T09:33:07.324Z,21.81
2019-05-05T09:35:08.975Z,21.81
2019-05-05T09:37:10.564Z,21.84
2019-05-05T09:39:13.848Z,21.86
2019-05-05T09:41:14.326Z,21.89
2019-05-05T09:43:15.516Z,21.93
2019-05-05T09:45:17.104Z,21.96
2019-05-05T09:47:18.688Z,22.01
2019-05-05T09:49:20.291Z,22.03
2019-05-05T09:51:24.031Z,22.08
2019-05-05T09:53:24.056Z,22.15
2019-05-05T09:55:25.231Z,22.19
2019-05-05T09:57:26.835Z,22.26
2019-05-05T09:59:28.436Z,22.33
2019-05-05T10:01:30.080Z,22.42
2019-05-05T10:03:31.695Z,22.47
2019-05-05T10:05:34.217Z,22.52
2019-05-05T10:07:34.942Z,22.41
2019-05-05T10:09:36.515Z,22.58
2019-05-05T10:11:38.175Z,22.60
2019-05-05T10:13:39.784Z,22.63
2019-05-05T10:15:41.392Z,22.62
2019-05-05T10:17:42.988Z,22.61
2019-05-05T10:19:44.583Z,22.57
2019-05-05T10:21:46.222Z,22.51
2019-05-05T10:23:47.836Z,22.46
2019-05-05T10:25:49.444Z,22.41
2019-05-05T10:27:51.032Z,22.34
2019-05-05T10:29:54.565Z,22.28
2019-05-05T10:31:54.290Z,22.17
2019-05-05T10:33:58.837Z,22.12
2019-05-05T10:36:00.412Z,22.06
2019-05-05T10:38:02.016Z,21.86
2019-05-05T10:40:03.732Z,21.97
2019-05-05T10:42:05.217Z,22.00
2019-05-05T10:44:06.860Z,22.01
2019-05-05T10:46:08.448Z,22.03
2019-05-05T10:48:10.028Z,22.04
2019-05-05T10:50:13.420Z,22.07
2019-05-05T10:52:14.189Z,22.08
2019-05-05T10:54:14.953Z,22.11
2019-05-05T10:56:16.654Z,22.13
2019-05-05T10:58:18.326Z,22.13
2019-05-05T11:00:19.950Z,22.08
2019-05-05T11:02:21.639Z,22.01
2019-05-05T11:04:24.355Z,21.98
2019-05-05T11:06:24.913Z,21.94
2019-05-05T11:08:26.548Z,21.90
2019-05-05T11:10:28.188Z,21.87
2019-05-05T11:12:29.799Z,21.95
2019-05-05T11:14:33.528Z,21.93
2019-05-05T11:16:34.064Z,21.93
2019-05-05T11:18:35.768Z,22.00
2019-05-05T11:20:37.430Z,22.08
2019-05-05T11:22:39.042Z,22.12
2019-05-05T11:24:54.205Z,22.21
2019-05-05T11:26:44.454Z,22.28
2019-05-05T11:28:45.247Z,22.34
2019-05-05T11:30:46.852Z,22.13
2019-05-05T11:32:54.260Z,22.42
2019-05-05T11:34:55.904Z,22.39
2019-05-05T11:36:59.224Z,22.43
2019-05-05T11:39:00.798Z,22.43
2019-05-05T11:41:06.564Z,22.42
2019-05-05T11:43:08.134Z,22.41
2019-05-05T11:45:09.752Z,22.42
2019-05-05T11:47:11.347Z,22.44
2019-05-05T11:49:14.040Z,22.45
2019-05-05T11:51:15.300Z,22.41
2019-05-05T11:53:16.895Z,22.39
2019-05-05T11:55:18.500Z,22.42
2019-05-05T11:57:20.132Z,22.42
2019-05-05T11:59:23.552Z,22.43
2019-05-05T12:01:24.261Z,22.36
2019-05-05T12:03:25.076Z,22.30
2019-05-05T12:05:26.739Z,22.23
2019-05-05T12:07:28.371Z,22.17
2019-05-05T12:09:33.431Z,22.15
2019-05-05T12:11:34.513Z,22.18
2019-05-05T12:13:35.661Z,22.17
2019-05-05T12:15:37.315Z,22.14
2019-05-05T12:17:38.904Z,22.10
2019-05-05T12:19:40.511Z,22.04
2019-05-05T12:21:44.044Z,21.97
2019-05-05T12:23:44.427Z,21.96
2019-05-05T12:26:07.262Z,21.92
2019-05-05T12:28:14.652Z,21.92
2019-05-05T12:30:16.223Z,21.99
2019-05-05T12:32:18.416Z,22.06
2019-05-05T12:34:20.000Z,22.12
2019-05-05T12:36:23.545Z,22.19
2019-05-05T12:38:24.131Z,22.23
2019-05-05T12:40:25.012Z,22.29
2019-05-05T12:42:26.601Z,22.33
2019-05-05T12:44:28.253Z,22.36
2019-05-05T12:46:48.453Z,22.33
2019-05-05T12:48:50.044Z,22.37
2019-05-05T12:50:53.486Z,22.39
2019-05-05T12:52:54.917Z,22.41
2019-05-05T12:54:54.926Z,22.42
2019-05-05T12:56:56.581Z,22.30
2019-05-05T12:58:58.237Z,22.34
2019-05-05T13:01:00.647Z,22.23
2019-05-05T13:03:06.595Z,22.08
2019-05-05T13:05:08.184Z,22.02
2019-05-05T13:07:09.784Z,21.98
2019-05-05T13:09:13.546Z,21.96
2019-05-05T13:11:13.175Z,21.95
2019-05-05T13:13:14.807Z,21.92
2019-05-05T13:15:16.382Z,21.91
2019-05-05T13:17:17.964Z,21.93
2019-05-05T13:19:19.595Z,22.15
2019-05-05T13:21:26.894Z,22.28
2019-05-05T13:23:28.573Z,22.38
2019-05-05T13:25:36.117Z,22.45
2019-05-05T13:27:38.403Z,22.49
2019-05-05T13:29:39.988Z,22.56
2019-05-05T13:31:41.602Z,22.61
2019-05-05T13:33:44.243Z,22.64
2019-05-05T13:35:44.870Z,22.65
2019-05-05T13:37:46.456Z,22.68
2019-05-05T13:39:48.064Z,22.68
2019-05-05T13:41:49.700Z,22.65
2019-05-05T13:43:51.340Z,22.63
2019-05-05T13:45:54.527Z,22.54
2019-05-05T13:47:56.112Z,22.39
2019-05-05T13:49:59.704Z,22.34
2019-05-05T13:52:06.576Z,22.15
2019-05-05T13:54:08.174Z,22.16
2019-05-05T13:56:12.434Z,22.13
2019-05-05T13:58:11.637Z,22.07
2019-05-05T14:00:14.062Z,22.02
2019-05-05T14:02:14.902Z,21.96
2019-05-05T14:04:16.519Z,21.94
2019-05-05T14:06:18.130Z,21.91
2019-05-05T14:08:19.856Z,21.88
2019-05-05T14:10:23.530Z,21.88
2019-05-05T14:12:23.995Z,21.89
2019-05-05T14:14:24.887Z,21.93
2019-05-05T14:16:26.499Z,21.85
2019-05-05T14:18:28.094Z,21.83
2019-05-05T14:20:29.703Z,21.69
2019-05-05T14:22:31.328Z,21.81
2019-05-05T14:24:47.852Z,21.85
2019-05-05T14:26:49.455Z,21.89
2019-05-05T14:28:51.063Z,21.90
2019-05-05T14:30:54.992Z,21.94
2019-05-05T14:32:56.598Z,21.81
2019-05-05T14:34:59.019Z,21.99
2019-05-05T14:37:06.218Z,22.00
2019-05-05T14:39:08.692Z,21.98
2019-05-05T14:41:10.335Z,21.97
2019-05-05T14:43:13.339Z,21.96
2019-05-05T14:45:15.339Z,21.94
2019-05-05T14:47:16.234Z,21.95
2019-05-05T14:49:18.652Z,21.93
2019-05-05T14:51:20.373Z,21.90
2019-05-05T14:53:23.623Z,21.86
2019-05-05T14:55:25.463Z,21.72
2019-05-05T14:57:28.339Z,21.79
2019-05-05T14:59:30.048Z,21.79
2019-05-05T15:01:34.239Z,21.86
2019-05-05T15:03:33.718Z,21.86
2019-05-05T15:05:50.075Z,21.83
2019-05-05T15:07:53.592Z,21.72
2019-05-05T15:09:56.768Z,21.68
2019-05-05T15:12:15.120Z,21.62
2019-05-05T15:14:16.709Z,21.48
2019-05-05T15:16:18.326Z,21.46
2019-05-05T15:18:19.955Z,21.47
2019-05-05T15:20:21.564Z,21.49
2019-05-05T15:22:23.907Z,21.50
2019-05-05T15:24:24.836Z,21.58
2019-05-05T15:26:26.464Z,21.64
2019-05-05T15:28:28.180Z,21.57
2019-05-05T15:30:29.776Z,21.55
2019-05-05T15:32:31.375Z,21.75
2019-05-05T15:34:34.400Z,21.82
2019-05-05T15:36:34.672Z,21.86
2019-05-05T15:38:36.288Z,22.39
2019-05-05T15:40:37.915Z,22.98
2019-05-05T15:42:39.524Z,23.30
2019-05-05T15:44:41.113Z,23.40
2019-05-05T15:46:44.241Z,23.56
2019-05-05T15:48:44.400Z,23.72
2019-05-05T15:50:46.013Z,23.60
2019-05-05T15:52:47.618Z,23.58
2019-05-05T15:54:49.336Z,23.49
2019-05-05T15:57:03.043Z,23.53
2019-05-05T15:58:52.576Z,23.49
2019-05-05T16:00:54.160Z,23.48
2019-05-05T16:02:55.803Z,23.41
2019-05-05T16:04:57.391Z,23.39
2019-05-05T16:06:58.996Z,23.28
2019-05-05T16:09:00.639Z,23.27
2019-05-05T16:11:07.946Z,23.03
2019-05-05T16:13:09.583Z,23.08
2019-05-05T16:15:16.924Z,23.14
2019-05-05T16:17:24.239Z,23.23
2019-05-05T16:19:30.463Z,23.32
2019-05-05T16:21:47.019Z,23.49
2019-05-05T16:23:49.140Z,23.56
2019-05-05T16:25:50.747Z,23.56
2019-05-05T16:27:52.355Z,23.44
2019-05-05T16:29:56.338Z,23.36
2019-05-05T16:31:55.704Z,23.35
2019-05-05T16:33:57.347Z,23.07
2019-05-05T16:35:59.644Z,22.85
2019-05-05T16:38:06.598Z,22.75
2019-05-05T16:40:08.052Z,22.58
2019-05-05T16:42:09.682Z,22.47
2019-05-05T16:44:11.320Z,22.38
2019-05-05T16:46:16.725Z,22.36
2019-05-05T16:48:14.688Z,22.36
2019-05-05T16:50:16.336Z,22.06
2019-05-05T16:52:17.952Z,22.24
2019-05-05T16:54:21.353Z,22.16
2019-05-05T16:56:24.261Z,22.13
2019-05-05T16:58:24.671Z,22.05
2019-05-05T17:00:26.311Z,22.05
2019-05-05T17:02:27.923Z,22.34
2019-05-05T17:04:29.513Z,22.52
2019-05-05T17:06:31.120Z,22.68
2019-05-05T17:08:33.798Z,22.82
2019-05-05T17:10:34.492Z,22.91
2019-05-05T17:12:36.088Z,22.95
2019-05-05T17:14:47.597Z,22.98
2019-05-05T17:16:50.732Z,22.99
2019-05-05T17:18:54.094Z,23.07
2019-05-05T17:20:58.316Z,22.96
2019-05-05T17:22:59.918Z,23.02
2019-05-05T17:25:06.967Z,23.06
2019-05-05T17:27:08.612Z,23.12
2019-05-05T17:29:10.219Z,23.18
2019-05-05T17:31:11.959Z,23.26
2019-05-05T17:33:14.467Z,23.29
2019-05-05T17:35:15.892Z,23.33
2019-05-05T17:37:17.495Z,23.28
2019-05-05T17:39:19.136Z,23.35
2019-05-05T17:41:24.518Z,23.42
2019-05-05T17:43:33.915Z,23.46
2019-05-05T17:45:39.332Z,23.53
2019-05-05T17:47:44.217Z,23.58
2019-05-05T17:49:51.094Z,23.57
2019-05-05T17:52:14.205Z,23.55
2019-05-05T17:54:14.190Z,23.67
2019-05-05T17:56:15.777Z,23.26
2019-05-05T17:58:17.350Z,22.87
2019-05-05T18:00:18.932Z,22.74
2019-05-05T18:02:20.536Z,22.98
2019-05-05T18:04:22.150Z,22.81
2019-05-05T18:06:26.588Z,22.46
2019-05-05T18:08:34.031Z,22.63
2019-05-05T18:10:35.745Z,22.82
2019-05-05T18:12:42.071Z,22.97
2019-05-05T18:14:44.363Z,22.96
2019-05-05T18:16:45.293Z,22.83
2019-05-05T18:18:46.900Z,22.78
2019-05-05T18:20:48.520Z,22.78
2019-05-05T18:22:50.107Z,22.61
2019-05-05T18:24:53.839Z,22.61
2019-05-05T18:26:53.787Z,22.43
2019-05-05T18:28:55.234Z,22.62
2019-05-05T18:30:56.892Z,22.77
2019-05-05T18:32:58.499Z,22.81
2019-05-05T18:35:00.130Z,22.88
2019-05-05T18:37:08.020Z,22.59
2019-05-05T18:39:09.618Z,22.39
2019-05-05T18:41:26.084Z,22.45
2019-05-05T18:43:28.149Z,22.74
2019-05-05T18:45:29.761Z,22.91
2019-05-05T18:47:31.367Z,23.03
2019-05-05T18:49:33.707Z,23.10
2019-05-05T18:51:34.831Z,23.18
2019-05-05T18:53:36.294Z,23.11
2019-05-05T18:55:37.931Z,23.25
2019-05-05T18:57:39.542Z,23.30
2019-05-05T18:59:41.132Z,23.31
2019-05-05T19:01:46.985Z,23.32
2019-05-05T19:04:06.721Z,23.33
2019-05-05T19:06:24.033Z,23.39
2019-05-05T19:08:26.096Z,23.34
2019-05-05T19:10:27.962Z,22.81
2019-05-05T19:12:29.820Z,22.94
2019-05-05T19:14:34.960Z,23.03
2019-05-05T19:16:35.860Z,23.12
2019-05-05T19:20:54.283Z,23.09
2019-05-05T19:23:02.722Z,23.09
2019-05-05T19:25:06.100Z,23.06
2019-05-05T19:27:07.702Z,22.95
2019-05-05T19:29:09.404Z,22.88
2019-05-05T19:31:11.016Z,22.33
2019-05-05T19:33:13.442Z,22.42
2019-05-05T19:35:14.364Z,22.33
2019-05-05T19:37:15.939Z,22.17
2019-05-05T19:39:17.533Z,22.22
2019-05-05T19:41:19.124Z,22.14
2019-05-05T19:43:20.762Z,22.10
2019-05-05T19:45:24.120Z,22.04
2019-05-05T19:47:24.619Z,22.03
2019-05-05T19:49:25.686Z,22.06
2019-05-05T19:51:27.262Z,22.25
2019-05-05T19:53:28.910Z,22.22
2019-05-05T19:55:30.508Z,22.18
2019-05-05T19:57:33.678Z,22.37
2019-05-05T19:59:35.737Z,22.61
2019-05-05T20:01:37.806Z,22.72
2019-05-05T20:03:37.260Z,22.77
2019-05-05T20:05:38.973Z,22.84
2019-05-05T20:07:40.633Z,22.91
2019-05-05T20:09:43.574Z,22.96
2019-05-05T20:11:44.226Z,23.04
2019-05-05T20:13:45.807Z,23.06
2019-05-05T20:16:06.687Z,22.99
2019-05-05T20:18:08.276Z,23.15
2019-05-05T20:20:09.953Z,23.18
2019-05-05T20:22:11.609Z,23.19
2019-05-05T20:24:14.546Z,23.17
2019-05-05T20:26:14.972Z,23.13
2019-05-05T20:28:16.566Z,23.17
2019-05-05T20:30:18.173Z,23.15
2019-05-05T20:32:19.756Z,23.18
2019-05-05T20:34:26.164Z,23.15
2019-05-05T20:36:28.320Z,22.83
2019-05-05T20:38:29.909Z,22.55
2019-05-05T20:40:34.973Z,22.69
2019-05-05T20:42:35.664Z,22.76
2019-05-05T20:44:37.274Z,22.78
2019-05-05T20:46:38.879Z,22.79
2019-05-05T20:48:41.341Z,22.75
2019-05-05T20:50:43.886Z,22.75
2019-05-05T20:52:44.329Z,22.73
2019-05-05T20:54:45.469Z,22.73
2019-05-05T20:56:47.112Z,22.72
2019-05-05T20:58:48.729Z,22.74
2019-05-05T21:00:50.323Z,22.74
2019-05-05T21:02:53.812Z,22.71
2019-05-05T21:04:54.103Z,22.73
2019-05-05T21:06:55.330Z,22.69
2019-05-05T21:08:56.931Z,22.71
2019-05-05T21:10:58.540Z,22.78
2019-05-05T21:13:00.184Z,22.61
2019-05-05T21:15:08.114Z,22.31
2019-05-05T21:17:09.762Z,22.25
2019-05-05T21:19:11.344Z,22.19
2019-05-05T21:21:13.902Z,22.14
2019-05-05T21:23:14.640Z,22.08
2019-05-05T21:25:23.880Z,22.04
2019-05-05T21:27:24.586Z,22.02
2019-05-05T21:29:38.408Z,22.01
2019-05-05T21:31:27.760Z,21.99
2019-05-05T21:33:29.376Z,22.00
2019-05-05T21:35:30.970Z,22.01
2019-05-05T21:37:34.041Z,21.96
2019-05-05T21:39:34.916Z,21.91
2019-05-05T21:41:35.840Z,21.91
2019-05-05T21:43:37.475Z,21.92
2019-05-05T21:45:39.088Z,21.89
2019-05-05T21:47:40.740Z,21.91
2019-05-05T21:49:42.347Z,21.93
2019-05-05T21:51:47.806Z,21.95
2019-05-05T21:53:50.366Z,21.97
2019-05-05T21:56:06.852Z,22.05
2019-05-05T21:58:09.357Z,22.09
2019-05-05T22:00:10.935Z,22.13
2019-05-05T22:02:12.600Z,22.17
2019-05-05T22:04:15.081Z,22.19
2019-05-05T22:06:15.852Z,22.21
2019-05-05T22:08:17.458Z,22.24
2019-05-05T22:10:19.040Z,22.22
2019-05-05T22:12:20.610Z,22.22
2019-05-05T22:14:22.236Z,22.25
2019-05-05T22:16:23.816Z,22.24
2019-05-05T22:18:25.422Z,22.24
2019-05-05T22:20:29.834Z,22.22
2019-05-05T22:22:33.578Z,22.22
2019-05-05T22:24:33.373Z,22.20
2019-05-05T22:26:34.784Z,22.17
2019-05-05T22:28:36.399Z,22.16
2019-05-05T22:30:38.008Z,22.16
2019-05-05T22:32:39.648Z,22.18
2019-05-05T22:34:41.256Z,22.17
2019-05-05T22:36:44.832Z,22.11
2019-05-05T22:38:44.675Z,22.09
2019-05-05T22:40:46.208Z,22.07
2019-05-05T22:42:47.860Z,22.05
2019-05-05T22:44:49.495Z,22.02
2019-05-05T22:46:51.090Z,22.00
2019-05-05T22:48:54.522Z,21.98
2019-05-05T22:50:54.517Z,22.00
2019-05-05T22:52:55.960Z,21.99
2019-05-05T22:54:57.572Z,21.96
2019-05-05T22:56:59.150Z,21.93
2019-05-05T22:59:00.755Z,21.90
2019-05-05T23:01:07.510Z,21.89
2019-05-05T23:03:13.788Z,21.87
2019-05-05T23:05:16.889Z,21.86
2019-05-05T23:07:28.375Z,21.85
2019-05-05T23:09:29.958Z,21.90
2019-05-05T23:11:31.582Z,21.90
2019-05-05T23:13:33.763Z,21.86
2019-05-05T23:15:34.844Z,21.87
2019-05-05T23:17:36.438Z,21.84
2019-05-05T23:19:38.478Z,21.83
2019-05-05T23:21:40.834Z,21.81
2019-05-05T23:23:42.421Z,21.80
2019-05-05T23:25:45.784Z,21.92
2019-05-05T23:27:46.486Z,21.84
2019-05-05T23:29:48.091Z,21.86
2019-05-05T23:31:49.666Z,21.86
2019-05-05T23:33:51.321Z,21.88
2019-05-05T23:35:54.897Z,21.91
2019-05-05T23:37:55.236Z,21.92
2019-05-05T23:39:56.256Z,21.92
2019-05-05T23:41:57.836Z,21.93
2019-05-05T23:43:59.453Z,21.94
2019-05-05T23:46:04.836Z,21.94
2019-05-05T23:48:07.312Z,21.97
2019-05-05T23:50:08.897Z,22.00
2019-05-05T23:52:10.480Z,22.00
2019-05-05T23:54:13.651Z,21.97
2019-05-05T23:56:13.752Z,21.96
2019-05-05T23:58:15.348Z,21.96
